createdAt,value
2024-02-13T00:03:55.604Z,100.00
2024-02-13T00:13:59.134Z,100.00
2024-02-13T00:24:03.513Z,100.00
2024-02-13T00:34:06.624Z,100.00
2024-02-13T00:44:10.997Z,100.00
2024-02-13T00:54:15.320Z,100.00
2024-02-13T01:04:19.867Z,100.00
2024-02-13T01:14:23.067Z,100.00
2024-02-13T01:24:27.867Z,100.00
2024-02-13T01:34:31.789Z,100.00
2024-02-13T01:44:36.068Z,100.00
2024-02-13T01:54:39.111Z,100.00
2024-02-13T02:04:43.759Z,100.00
2024-02-13T02:14:46.991Z,100.00
2024-02-13T02:24:53.311Z,100.00
2024-02-13T02:34:57.591Z,100.00
2024-02-13T02:45:00.942Z,100.00
2024-02-13T02:55:07.133Z,100.00
2024-02-13T03:05:11.137Z,100.00
2024-02-13T03:15:15.341Z,100.00
2024-02-13T03:25:18.454Z,100.00
2024-02-13T03:35:22.862Z,99.86
2024-02-13T03:45:25.929Z,99.82
2024-02-13T03:55:30.294Z,99.49
2024-02-13T04:05:38.719Z,99.13
2024-02-13T04:15:43.444Z,98.95
2024-02-13T04:25:46.456Z,99.46
2024-02-13T04:35:51.018Z,99.73
2024-02-13T04:45:53.993Z,99.11
2024-02-13T04:55:59.312Z,98.98
2024-02-13T05:06:19.848Z,97.50
2024-02-13T05:16:25.368Z,97.99
2024-02-13T05:26:28.746Z,96.30
2024-02-13T05:36:33.672Z,95.81
2024-02-13T05:46:37.417Z,95.51
2024-02-13T05:56:41.815Z,95.34
2024-02-13T06:06:46.256Z,96.42
2024-02-13T06:16:50.537Z,97.10
2024-02-13T06:26:56.047Z,96.56
2024-02-13T06:37:03.127Z,96.56
2024-02-13T06:47:08.154Z,96.23
2024-02-13T06:57:12.590Z,96.27
2024-02-13T07:07:28.532Z,96.13
2024-02-13T07:17:49.007Z,96.09
2024-02-13T07:27:59.952Z,97.11
2024-02-13T07:38:05.813Z,94.92
2024-02-13T07:48:12.533Z,92.89
2024-02-13T07:58:17.021Z,91.00
2024-02-13T08:08:20.104Z,89.58
2024-02-13T08:18:26.163Z,88.85
2024-02-13T08:28:29.375Z,87.71
2024-02-13T08:38:33.880Z,87.20
2024-02-13T08:48:38.665Z,86.62
2024-02-13T08:58:43.428Z,85.35
2024-02-13T09:08:46.373Z,86.11
2024-02-13T09:18:51.038Z,83.53
2024-02-13T09:28:55.103Z,83.34
2024-02-13T09:39:00.063Z,81.58
2024-02-13T09:49:06.362Z,80.28
2024-02-13T09:59:13.376Z,76.94
2024-02-13T10:09:17.771Z,72.96
2024-02-13T10:19:28.657Z,70.20
2024-02-13T10:29:41.538Z,71.02
2024-02-13T10:39:48.748Z,71.06
2024-02-13T10:49:55.326Z,70.60
2024-02-13T11:00:03.199Z,72.09
2024-02-13T11:10:10.348Z,68.69
2024-02-13T11:20:15.964Z,70.35
2024-02-13T11:30:24.767Z,69.25
2024-02-13T11:40:30.044Z,68.53
2024-02-13T11:50:34.042Z,67.73
2024-02-13T12:00:38.629Z,64.26
2024-02-13T12:10:41.835Z,62.89
2024-02-13T12:20:51.162Z,59.31
2024-02-13T12:30:57.148Z,58.27
2024-02-13T12:41:01.722Z,60.21
2024-02-13T12:51:05.832Z,62.05
2024-02-13T13:01:11.247Z,63.51
2024-02-13T13:11:14.990Z,65.03
2024-02-13T13:21:19.730Z,65.10
2024-02-13T13:31:23.641Z,65.70
2024-02-13T13:41:29.096Z,65.02
2024-02-13T13:51:35.051Z,65.12
2024-02-13T14:01:40.499Z,67.67
2024-02-13T14:11:43.719Z,69.07
2024-02-13T14:21:48.097Z,69.55
2024-02-13T14:31:51.386Z,68.95
2024-02-13T14:41:56.090Z,68.85
2024-02-13T14:51:59.070Z,69.05
2024-02-13T15:02:05.789Z,69.37
2024-02-13T15:12:09.167Z,68.74
2024-02-13T15:22:13.562Z,69.41
2024-02-13T15:32:17.351Z,67.83
2024-02-13T15:42:39.555Z,68.54
2024-02-13T15:52:42.648Z,70.54
2024-02-13T16:02:47.835Z,71.98
2024-02-13T16:12:51.891Z,73.34
2024-02-13T16:22:56.546Z,74.84
2024-02-13T16:32:59.794Z,75.04
2024-02-13T16:43:05.387Z,76.08
2024-02-13T16:53:08.805Z,76.52
2024-02-13T17:03:14.444Z,77.39
2024-02-13T17:13:17.729Z,79.79
2024-02-13T17:23:22.217Z,78.74
2024-02-13T17:33:25.404Z,80.49
2024-02-13T17:43:32.454Z,81.45
2024-02-13T17:53:36.419Z,81.53
2024-02-13T18:03:41.828Z,81.79
2024-02-13T18:13:45.942Z,82.18
2024-02-13T18:23:55.508Z,83.35
2024-02-13T18:33:59.508Z,83.66
2024-02-13T18:44:03.992Z,84.70
2024-02-13T18:54:07.094Z,85.47
2024-02-13T19:04:11.442Z,86.02
2024-02-13T19:14:14.481Z,86.73
2024-02-13T19:24:19.070Z,87.61
2024-02-13T19:34:23.550Z,87.77
2024-02-13T19:44:29.355Z,88.09
2024-02-13T19:54:32.478Z,87.79
2024-02-13T20:04:36.776Z,88.21
2024-02-13T20:14:40.188Z,89.06
2024-02-13T20:24:44.749Z,88.68
2024-02-13T20:34:47.915Z,89.01
2024-02-13T20:44:55.498Z,89.47
2024-02-13T20:55:01.052Z,90.48
2024-02-13T21:05:06.685Z,90.10
2024-02-13T21:15:13.210Z,91.50
2024-02-13T21:25:17.911Z,92.21
2024-02-13T21:35:22.463Z,92.31
2024-02-13T21:45:28.880Z,93.70
2024-02-13T21:55:31.950Z,94.83
2024-02-13T22:05:37.750Z,94.50
2024-02-13T22:15:41.406Z,92.81
2024-02-13T22:25:45.507Z,91.38
2024-02-13T22:35:49.353Z,89.19
2024-02-13T22:45:53.680Z,85.88
2024-02-13T22:55:56.603Z,84.53
2024-02-13T23:06:02.474Z,82.60
2024-02-13T23:16:07.938Z,81.75
2024-02-13T23:26:13.960Z,80.96
2024-02-13T23:36:16.968Z,81.02
2024-02-13T23:46:21.162Z,81.31
2024-02-13T23:56:23.907Z,81.44
